createdAt,value
2022-09-18T00:01:38.101Z,424.13
2022-09-18T00:04:09.245Z,468.27
2022-09-18T00:06:40.045Z,503.33
2022-09-18T00:09:10.300Z,419.77
2022-09-18T00:11:40.149Z,438.50
2022-09-18T00:14:10.032Z,429.03
2022-09-18T00:16:39.292Z,461.67
2022-09-18T00:19:09.400Z,564.27
2022-09-18T00:21:37.676Z,436.57
2022-09-18T00:24:06.200Z,518.93
2022-09-18T00:26:35.469Z,467.73
2022-09-18T00:29:03.900Z,461.23
2022-09-18T00:31:33.524Z,525.47
2022-09-18T00:34:04.041Z,449.97
2022-09-18T00:36:33.341Z,436.93
2022-09-18T00:39:02.510Z,386.20
2022-09-18T00:41:32.587Z,386.20
2022-09-18T00:44:31.745Z,474.27
2022-09-18T00:47:04.631Z,459.40
2022-09-18T00:49:33.366Z,381.57
2022-09-18T00:52:03.629Z,428.40
2022-09-18T00:54:34.382Z,446.47
2022-09-18T00:57:05.909Z,488.37
2022-09-18T00:59:35.781Z,502.70
2022-09-18T01:02:04.498Z,501.50
2022-09-18T01:04:33.306Z,521.80
2022-09-18T01:07:08.764Z,488.27
2022-09-18T01:09:44.468Z,476.70
2022-09-18T01:12:20.651Z,507.03
2022-09-18T01:14:54.616Z,399.80
2022-09-18T01:17:27.355Z,471.80
2022-09-18T01:20:27.458Z,385.93
2022-09-18T01:23:12.573Z,373.30
2022-09-18T01:25:51.957Z,366.90
2022-09-18T01:28:26.751Z,421.20
2022-09-18T01:30:58.527Z,401.93
2022-09-18T01:33:32.364Z,464.37
2022-09-18T01:36:04.149Z,429.53
2022-09-18T01:38:36.025Z,435.50
2022-09-18T01:41:10.887Z,368.50
2022-09-18T01:43:40.896Z,375.33
2022-09-18T01:46:12.878Z,502.33
2022-09-18T01:48:44.885Z,429.90
2022-09-18T01:51:16.534Z,447.07
2022-09-18T01:53:47.903Z,378.07
2022-09-18T01:56:20.820Z,410.13
2022-09-18T01:58:52.609Z,384.37
2022-09-18T02:01:23.488Z,466.77
2022-09-18T02:03:54.958Z,451.23
2022-09-18T02:06:26.471Z,400.13
2022-09-18T02:08:56.863Z,460.07
2022-09-18T02:11:25.496Z,433.07
2022-09-18T02:13:59.009Z,423.53
2022-09-18T02:16:44.115Z,441.40
2022-09-18T02:19:18.308Z,428.83
2022-09-18T02:21:48.393Z,464.63
2022-09-18T02:24:18.566Z,506.63
2022-09-18T02:26:48.097Z,480.00
2022-09-18T02:29:18.728Z,474.40
2022-09-18T02:31:46.977Z,411.50
2022-09-18T02:34:15.230Z,445.40
2022-09-18T02:36:56.998Z,436.80
2022-09-18T02:39:36.547Z,397.43
2022-09-18T02:42:15.280Z,399.67
2022-09-18T02:44:50.499Z,507.90
2022-09-18T02:47:30.392Z,455.10
2022-09-18T02:50:07.685Z,377.43
2022-09-18T02:52:41.062Z,382.73
2022-09-18T02:55:11.803Z,443.90
2022-09-18T02:57:45.319Z,363.17
2022-09-18T03:00:18.703Z,448.60
2022-09-18T03:02:51.148Z,413.43
2022-09-18T03:05:31.671Z,353.27
2022-09-18T03:08:02.597Z,426.23
2022-09-18T03:10:31.837Z,461.63
2022-09-18T03:12:59.798Z,364.50
2022-09-18T03:15:29.076Z,577.83
2022-09-18T03:17:58.165Z,388.00
2022-09-18T03:20:26.225Z,420.60
2022-09-18T03:22:54.306Z,433.40
2022-09-18T03:25:22.278Z,412.33
2022-09-18T03:27:50.428Z,492.13
2022-09-18T03:30:26.853Z,396.43
2022-09-18T03:32:56.481Z,455.57
2022-09-18T03:35:24.502Z,444.13
2022-09-18T03:37:52.624Z,463.17
2022-09-18T03:40:23.320Z,587.00
2022-09-18T03:42:51.853Z,481.13
2022-09-18T03:45:20.040Z,463.83
2022-09-18T03:47:48.764Z,497.67
2022-09-18T03:50:18.405Z,504.70
2022-09-18T03:52:50.492Z,569.43
2022-09-18T03:55:37.921Z,505.93
2022-09-18T03:58:25.969Z,501.97
2022-09-18T04:01:13.630Z,539.70
2022-09-18T04:04:01.567Z,524.67
2022-09-18T04:07:03.925Z,560.30
2022-09-18T04:09:43.829Z,581.73
2022-09-18T04:12:12.107Z,502.10
2022-09-18T04:14:40.564Z,546.23
2022-09-18T04:17:08.935Z,578.17
2022-09-18T04:19:36.886Z,579.60
2022-09-18T04:22:06.261Z,547.60
2022-09-18T04:24:35.378Z,549.07
2022-09-18T04:27:07.639Z,544.70
2022-09-18T04:29:35.851Z,493.87
2022-09-18T04:32:05.474Z,464.83
2022-09-18T04:34:33.495Z,525.20
2022-09-18T04:37:01.586Z,553.67
2022-09-18T04:39:33.631Z,571.93
2022-09-18T04:42:04.813Z,527.17
2022-09-18T04:44:33.283Z,487.00
2022-09-18T04:47:01.376Z,547.00
2022-09-18T04:49:29.353Z,564.83
2022-09-18T04:51:57.368Z,488.13
2022-09-18T04:54:25.703Z,528.17
2022-09-18T04:56:55.060Z,500.73
2022-09-18T04:59:22.961Z,505.67
2022-09-18T05:01:55.811Z,572.10
2022-09-18T05:04:48.890Z,525.47
2022-09-18T05:07:27.660Z,506.70
2022-09-18T05:09:56.157Z,535.37
2022-09-18T05:12:25.448Z,581.17
2022-09-18T05:14:53.488Z,589.33
2022-09-18T05:17:21.522Z,557.43
2022-09-18T05:20:05.650Z,539.23
2022-09-18T05:22:39.003Z,537.23
2022-09-18T05:25:11.464Z,489.53
2022-09-18T05:27:40.843Z,525.10
2022-09-18T05:30:11.190Z,468.07
2022-09-18T05:32:59.151Z,532.30
2022-09-18T05:35:29.689Z,524.07
2022-09-18T05:37:59.352Z,468.20
2022-09-18T05:40:31.013Z,484.70
2022-09-18T05:43:03.045Z,506.13
2022-09-18T05:45:33.692Z,526.40
2022-09-18T05:48:06.070Z,506.27
2022-09-18T05:50:36.404Z,512.70
2022-09-18T05:53:07.006Z,473.27
2022-09-18T05:55:44.122Z,479.77
2022-09-18T05:58:15.379Z,418.50
2022-09-18T06:00:44.746Z,425.57
2022-09-18T06:03:19.625Z,508.03
2022-09-18T06:05:53.558Z,494.73
2022-09-18T06:08:22.729Z,518.13
2022-09-18T06:10:50.833Z,435.70
2022-09-18T06:13:20.312Z,423.57
2022-09-18T06:15:52.904Z,443.90
2022-09-18T06:18:35.619Z,371.00
2022-09-18T06:21:04.721Z,469.93
2022-09-18T06:23:32.783Z,479.60
2022-09-18T06:26:09.437Z,459.90
2022-09-18T06:28:42.504Z,388.83
2022-09-18T06:31:11.158Z,403.13
2022-09-18T06:34:01.924Z,436.43
2022-09-18T06:36:29.866Z,391.33
2022-09-18T06:39:04.951Z,425.23
2022-09-18T06:41:33.686Z,381.50
2022-09-18T06:44:06.981Z,412.17
2022-09-18T06:46:43.486Z,384.77
2022-09-18T06:49:23.541Z,401.30
2022-09-18T06:51:51.533Z,433.07
2022-09-18T06:54:19.504Z,431.33
2022-09-18T06:56:47.994Z,315.77
2022-09-18T06:59:19.562Z,352.50
2022-09-18T07:01:48.634Z,358.73
2022-09-18T07:04:21.884Z,300.47
2022-09-18T07:06:50.223Z,918.47
2022-09-18T07:09:18.868Z,390.93
2022-09-18T07:12:01.357Z,335.47
2022-09-18T07:14:38.006Z,307.77
2022-09-18T07:17:18.227Z,331.07
2022-09-18T07:19:49.871Z,337.80
2022-09-18T07:22:20.145Z,284.93
2022-09-18T07:24:48.841Z,293.93
2022-09-18T07:27:17.078Z,296.37
2022-09-18T07:29:50.275Z,267.73
2022-09-18T07:32:20.506Z,359.17
2022-09-18T07:34:49.989Z,257.00
2022-09-18T07:37:25.480Z,296.63
2022-09-18T07:40:09.516Z,212.57
2022-09-18T07:43:15.936Z,260.60
2022-09-18T07:45:52.749Z,240.73
2022-09-18T07:48:21.578Z,235.27
2022-09-18T07:50:51.992Z,241.27
2022-09-18T07:53:21.348Z,212.27
2022-09-18T07:55:53.373Z,199.40
2022-09-18T07:58:21.396Z,176.60
2022-09-18T08:01:00.628Z,202.60
2022-09-18T08:03:29.411Z,230.47
2022-09-18T08:06:20.593Z,160.63
2022-09-18T08:09:05.812Z,211.73
2022-09-18T08:11:54.185Z,177.17
2022-09-18T08:14:31.652Z,190.57
2022-09-18T08:17:21.196Z,202.03
2022-09-18T08:20:04.368Z,173.43
2022-09-18T08:22:46.855Z,170.07
2022-09-18T08:25:15.946Z,211.63
2022-09-18T08:27:48.723Z,232.67
2022-09-18T08:30:23.026Z,229.33
2022-09-18T08:33:00.465Z,199.57
2022-09-18T08:35:28.900Z,259.10
2022-09-18T08:38:02.280Z,189.80
2022-09-18T08:40:59.815Z,210.17
2022-09-18T08:43:46.049Z,213.60
2022-09-18T08:46:17.195Z,234.10
2022-09-18T08:48:53.638Z,213.40
2022-09-18T08:51:26.048Z,238.47
2022-09-18T08:53:58.731Z,203.17
2022-09-18T08:56:37.097Z,217.40
2022-09-18T08:59:18.119Z,251.10
2022-09-18T09:01:53.406Z,236.53
2022-09-18T09:04:25.505Z,881.83
2022-09-18T09:07:02.863Z,226.17
2022-09-18T09:09:47.327Z,137.17
2022-09-18T09:12:44.803Z,116.13
2022-09-18T09:15:21.701Z,125.27
2022-09-18T09:17:59.642Z,161.63
2022-09-18T09:20:37.562Z,138.73
2022-09-18T09:23:16.252Z,148.83
2022-09-18T09:25:50.831Z,125.37
2022-09-18T09:28:30.606Z,128.70
2022-09-18T09:31:36.207Z,108.77
2022-09-18T09:34:40.956Z,106.00
2022-09-18T09:37:40.978Z,139.93
2022-09-18T09:40:15.714Z,176.67
2022-09-18T09:42:46.610Z,209.17
2022-09-18T09:45:16.898Z,285.53
2022-09-18T09:47:46.991Z,228.00
2022-09-18T09:50:27.420Z,200.97
2022-09-18T09:52:59.270Z,170.40
2022-09-18T09:55:29.865Z,217.37
2022-09-18T09:58:06.526Z,215.47
2022-09-18T10:00:37.828Z,201.83
2022-09-18T10:03:24.641Z,255.77
2022-09-18T10:05:58.890Z,238.90
2022-09-18T10:08:34.487Z,212.80
2022-09-18T10:11:08.786Z,238.20
2022-09-18T10:13:41.359Z,236.73
2022-09-18T10:16:13.935Z,271.70
2022-09-18T10:18:44.382Z,241.10
2022-09-18T10:21:14.892Z,177.40
2022-09-18T10:23:46.250Z,237.83
2022-09-18T10:26:20.384Z,204.80
2022-09-18T10:28:48.756Z,209.77
2022-09-18T10:31:18.054Z,176.63
2022-09-18T10:33:53.113Z,196.87
2022-09-18T10:36:30.199Z,186.07
2022-09-18T10:39:18.173Z,176.03
2022-09-18T10:41:47.718Z,152.30
2022-09-18T10:44:22.483Z,196.33
2022-09-18T10:47:00.302Z,118.03
2022-09-18T10:49:32.596Z,111.33
2022-09-18T10:52:22.587Z,75.47
2022-09-18T10:55:17.476Z,62.57
2022-09-18T10:58:08.296Z,29.47
2022-09-18T11:00:43.142Z,23.97
2022-09-18T11:03:20.942Z,22.67
2022-09-18T11:05:52.598Z,19.30
2022-09-18T11:08:23.708Z,12.03
2022-09-18T11:10:59.170Z,9.70
2022-09-18T11:13:28.676Z,8.77
2022-09-18T11:15:58.523Z,8.30
2022-09-18T11:18:29.106Z,8.10
2022-09-18T11:20:58.441Z,7.40
2022-09-18T11:23:28.996Z,10.20
2022-09-18T11:26:19.363Z,10.50
2022-09-18T11:29:03.311Z,10.20
2022-09-18T11:31:41.035Z,10.40
2022-09-18T11:34:20.445Z,11.03
2022-09-18T11:36:51.119Z,11.73
2022-09-18T11:39:24.735Z,11.00
2022-09-18T11:41:56.685Z,9.33
2022-09-18T11:44:27.715Z,9.43
2022-09-18T11:47:23.927Z,8.00
2022-09-18T11:49:56.933Z,6.70
2022-09-18T11:52:29.137Z,5.93
2022-09-18T11:55:05.530Z,5.30
2022-09-18T11:57:38.399Z,5.07
2022-09-18T12:00:11.476Z,4.97
2022-09-18T12:02:51.108Z,4.90
2022-09-18T12:05:23.673Z,4.63
2022-09-18T12:07:59.575Z,4.80
2022-09-18T12:10:39.891Z,4.80
2022-09-18T12:13:24.914Z,5.13
2022-09-18T12:15:59.104Z,5.70
2022-09-18T12:18:29.558Z,5.60
2022-09-18T12:21:00.852Z,5.33
2022-09-18T12:23:29.847Z,5.77
2022-09-18T12:26:07.888Z,5.60
2022-09-18T12:28:55.337Z,6.67
2022-09-18T12:31:30.156Z,7.67
2022-09-18T12:34:02.433Z,7.37
2022-09-18T12:36:41.255Z,9.33
2022-09-18T12:39:23.931Z,7.33
2022-09-18T12:42:00.967Z,6.53
2022-09-18T12:44:54.852Z,5.63
2022-09-18T12:47:34.474Z,4.97
2022-09-18T12:50:15.370Z,4.37
2022-09-18T12:53:08.212Z,4.40
2022-09-18T12:55:50.512Z,3.63
2022-09-18T12:58:39.772Z,3.47
2022-09-18T13:01:27.282Z,3.90
2022-09-18T13:03:57.383Z,3.30
2022-09-18T13:06:31.481Z,4.80
2022-09-18T13:09:02.573Z,4.60
2022-09-18T13:11:33.890Z,3.93
2022-09-18T13:14:05.193Z,3.73
2022-09-18T13:16:37.957Z,3.20
2022-09-18T13:19:10.710Z,4.50
2022-09-18T13:21:41.777Z,3.37
2022-09-18T13:24:13.523Z,3.50
2022-09-18T13:26:42.615Z,3.57
2022-09-18T13:29:43.906Z,3.10
2022-09-18T13:32:14.038Z,3.20
2022-09-18T13:34:51.309Z,3.37
2022-09-18T13:37:22.742Z,2.90
2022-09-18T13:40:09.182Z,2.97
2022-09-18T13:42:40.491Z,3.20
2022-09-18T13:45:18.730Z,2.77
2022-09-18T13:48:04.623Z,3.30
2022-09-18T13:50:33.864Z,3.13
2022-09-18T13:53:03.995Z,3.20
2022-09-18T13:55:38.502Z,2.90
2022-09-18T13:58:39.216Z,2.87
2022-09-18T14:01:08.311Z,3.00
2022-09-18T14:04:49.842Z,3.00
2022-09-18T14:07:45.292Z,3.37
2022-09-18T14:10:24.214Z,2.73
2022-09-18T14:13:37.587Z,3.00
2022-09-18T14:16:12.874Z,2.90
2022-09-18T14:18:56.264Z,2.93
2022-09-18T14:21:48.797Z,3.03
2022-09-18T14:24:40.592Z,3.23
2022-09-18T14:27:34.330Z,3.00
2022-09-18T14:30:11.876Z,2.87
2022-09-18T14:32:40.340Z,2.87
2022-09-18T14:35:29.947Z,2.97
2022-09-18T14:37:57.952Z,2.90
2022-09-18T14:40:28.368Z,2.80
2022-09-18T14:42:56.486Z,2.70
2022-09-18T14:45:28.163Z,2.90
2022-09-18T14:47:56.636Z,2.90
2022-09-18T14:50:28.803Z,2.80
2022-09-18T14:52:58.040Z,3.00
2022-09-18T14:55:35.192Z,2.80
2022-09-18T14:58:06.553Z,2.87
2022-09-18T15:00:36.431Z,3.03
2022-09-18T15:03:07.881Z,3.30
2022-09-18T15:05:36.377Z,3.10
2022-09-18T15:08:29.135Z,3.20
2022-09-18T15:10:59.517Z,2.87
2022-09-18T15:13:29.069Z,3.50
2022-09-18T15:16:01.856Z,3.00
2022-09-18T15:18:31.356Z,2.90
2022-09-18T15:21:01.907Z,2.90
2022-09-18T15:23:31.191Z,3.00
2022-09-18T15:26:03.600Z,3.00
2022-09-18T15:28:33.842Z,2.87
2022-09-18T15:31:04.819Z,2.70
2022-09-18T15:33:35.051Z,3.10
2022-09-18T15:36:04.967Z,2.70
2022-09-18T15:38:42.925Z,2.90
2022-09-18T15:41:35.876Z,2.70
2022-09-18T15:44:04.011Z,2.60
2022-09-18T15:46:34.121Z,2.90
2022-09-18T15:49:04.240Z,2.70
2022-09-18T15:51:33.755Z,2.97
2022-09-18T15:54:24.061Z,2.90
2022-09-18T15:56:54.900Z,2.57
2022-09-18T15:59:28.999Z,2.80
2022-09-18T16:01:57.866Z,2.40
2022-09-18T16:04:28.572Z,2.90
2022-09-18T16:07:01.825Z,2.80
2022-09-18T16:09:38.233Z,2.80
2022-09-18T16:12:39.906Z,2.50
2022-09-18T16:15:20.167Z,2.67
2022-09-18T16:18:04.422Z,2.80
2022-09-18T16:20:38.259Z,2.60
2022-09-18T16:23:21.004Z,2.70
2022-09-18T16:26:08.379Z,2.73
2022-09-18T16:28:42.640Z,2.70
2022-09-18T16:31:12.077Z,2.50
2022-09-18T16:33:50.208Z,3.00
2022-09-18T16:36:27.437Z,3.10
2022-09-18T16:38:55.680Z,2.80
2022-09-18T16:41:23.746Z,2.70
2022-09-18T16:43:53.930Z,2.90
2022-09-18T16:46:23.815Z,2.60
2022-09-18T16:48:52.302Z,2.60
2022-09-18T16:51:21.910Z,2.60
2022-09-18T16:53:50.630Z,2.60
2022-09-18T16:56:22.278Z,2.57
2022-09-18T16:58:52.918Z,2.50
2022-09-18T17:01:23.188Z,2.70
2022-09-18T17:03:51.662Z,2.60
2022-09-18T17:06:19.788Z,2.70
2022-09-18T17:08:48.289Z,2.73
2022-09-18T17:11:16.284Z,2.63
2022-09-18T17:13:44.289Z,2.90
2022-09-18T17:16:26.104Z,2.73
2022-09-18T17:19:01.996Z,2.70
2022-09-18T17:21:30.087Z,2.70
2022-09-18T17:23:58.132Z,2.60
2022-09-18T17:26:28.519Z,2.70
2022-09-18T17:28:56.792Z,2.57
2022-09-18T17:31:26.506Z,2.73
2022-09-18T17:33:55.261Z,2.60
2022-09-18T17:36:23.865Z,2.80
2022-09-18T17:38:52.370Z,2.50
2022-09-18T17:41:21.451Z,2.67
2022-09-18T17:43:52.327Z,2.83
2022-09-18T17:46:20.968Z,2.77
2022-09-18T17:48:54.454Z,2.93
2022-09-18T17:51:27.669Z,2.70
2022-09-18T17:53:58.812Z,2.77
2022-09-18T17:56:29.890Z,3.07
2022-09-18T17:58:59.863Z,2.67
2022-09-18T18:01:29.306Z,2.77
2022-09-18T18:03:58.742Z,2.87
2022-09-18T18:06:26.982Z,2.60
2022-09-18T18:08:56.110Z,3.60
2022-09-18T18:11:25.249Z,2.70
2022-09-18T18:13:54.479Z,2.60
2022-09-18T18:16:24.183Z,2.70
2022-09-18T18:18:57.281Z,2.67
2022-09-18T18:21:27.596Z,2.83
2022-09-18T18:23:56.914Z,2.60
2022-09-18T18:26:25.477Z,2.93
2022-09-18T18:28:55.493Z,2.97
2022-09-18T18:31:25.645Z,2.90
2022-09-18T18:33:54.880Z,3.07
2022-09-18T18:36:24.565Z,2.77
2022-09-18T18:38:56.099Z,2.80
2022-09-18T18:41:25.727Z,2.83
2022-09-18T18:43:55.448Z,2.80
2022-09-18T18:46:25.233Z,2.70
2022-09-18T18:49:00.012Z,3.00
2022-09-18T18:51:28.681Z,3.13
2022-09-18T18:54:00.265Z,2.90
2022-09-18T18:56:28.282Z,2.80
2022-09-18T18:58:57.264Z,3.20
2022-09-18T19:01:25.853Z,3.20
2022-09-18T19:03:59.935Z,3.20
2022-09-18T19:06:28.748Z,3.00
2022-09-18T19:08:59.275Z,2.93
2022-09-18T19:11:28.791Z,2.80
2022-09-18T19:13:57.808Z,2.73
2022-09-18T19:16:27.164Z,3.17
2022-09-18T19:18:58.538Z,2.87
2022-09-18T19:21:27.337Z,2.80
2022-09-18T19:23:58.978Z,2.80
2022-09-18T19:26:29.703Z,3.00
2022-09-18T19:28:59.226Z,2.97
2022-09-18T19:31:28.277Z,3.00
2022-09-18T19:33:57.879Z,2.60
2022-09-18T19:36:28.267Z,2.80
2022-09-18T19:38:57.429Z,2.70
2022-09-18T19:41:33.071Z,2.70
2022-09-18T19:44:02.669Z,2.77
2022-09-18T19:46:55.805Z,2.60
2022-09-18T19:49:26.698Z,2.83
2022-09-18T19:51:55.762Z,2.90
2022-09-18T19:54:24.263Z,2.80
2022-09-18T19:56:53.632Z,2.60
2022-09-18T19:59:21.612Z,2.77
2022-09-18T20:01:49.652Z,2.77
2022-09-18T20:04:17.807Z,2.70
2022-09-18T20:06:45.831Z,2.70
2022-09-18T20:09:13.798Z,2.90
2022-09-18T20:11:45.338Z,2.90
2022-09-18T20:14:18.358Z,2.67
2022-09-18T20:16:46.391Z,2.70
2022-09-18T20:19:14.614Z,2.63
2022-09-18T20:21:43.433Z,2.80
2022-09-18T20:24:11.542Z,2.57
2022-09-18T20:26:39.600Z,2.77
2022-09-18T20:29:07.603Z,2.73
2022-09-18T20:31:37.160Z,2.97
2022-09-18T20:34:05.917Z,2.77
2022-09-18T20:36:34.027Z,2.67
2022-09-18T20:39:03.678Z,3.17
2022-09-18T20:41:31.774Z,2.77
2022-09-18T20:44:05.053Z,2.90
2022-09-18T20:46:37.118Z,3.03
2022-09-18T20:49:08.182Z,2.83
2022-09-18T20:51:36.711Z,2.80
2022-09-18T20:54:08.226Z,3.00
2022-09-18T20:56:41.371Z,2.70
2022-09-18T20:59:10.583Z,2.80
2022-09-18T21:02:03.490Z,2.93
2022-09-18T21:04:32.934Z,3.00
2022-09-18T21:07:01.676Z,2.77
2022-09-18T21:09:31.089Z,2.97
2022-09-18T21:11:59.168Z,2.70
2022-09-18T21:14:27.540Z,2.90
2022-09-18T21:16:56.037Z,2.83
2022-09-18T21:19:26.220Z,2.77
2022-09-18T21:21:55.841Z,2.70
2022-09-18T21:24:23.875Z,3.07
2022-09-18T21:26:51.901Z,3.17
2022-09-18T21:29:22.643Z,3.47
2022-09-18T21:31:52.011Z,3.80
2022-09-18T21:34:23.443Z,3.77
2022-09-18T21:36:52.069Z,4.00
2022-09-18T21:39:21.672Z,4.33
2022-09-18T21:41:53.171Z,4.40
2022-09-18T21:44:27.022Z,5.80
2022-09-18T21:47:01.973Z,6.97
2022-09-18T21:49:30.527Z,9.90
2022-09-18T21:52:00.100Z,12.43
2022-09-18T21:54:30.365Z,16.87
2022-09-18T21:56:58.528Z,16.10
2022-09-18T21:59:27.580Z,23.53
2022-09-18T22:01:55.797Z,30.97
2022-09-18T22:04:26.275Z,30.63
2022-09-18T22:06:55.618Z,39.43
2022-09-18T22:09:25.330Z,37.67
2022-09-18T22:11:55.837Z,32.20
2022-09-18T22:14:28.589Z,28.27
2022-09-18T22:16:56.609Z,46.90
2022-09-18T22:19:24.647Z,60.23
2022-09-18T22:21:53.107Z,97.03
2022-09-18T22:24:22.778Z,66.73
2022-09-18T22:26:52.750Z,76.17
2022-09-18T22:29:23.561Z,86.23
2022-09-18T22:31:52.047Z,99.63
2022-09-18T22:34:22.986Z,104.13
2022-09-18T22:36:51.239Z,123.87
2022-09-18T22:39:20.792Z,146.70
2022-09-18T22:41:49.173Z,133.57
2022-09-18T22:44:17.177Z,244.93
2022-09-18T22:46:47.269Z,171.90
2022-09-18T22:49:16.698Z,198.37
2022-09-18T22:51:45.344Z,219.57
2022-09-18T22:54:15.114Z,184.33
2022-09-18T22:56:46.257Z,212.43
2022-09-18T22:59:15.616Z,233.20
2022-09-18T23:01:47.762Z,177.80
2022-09-18T23:04:18.564Z,236.40
2022-09-18T23:06:47.287Z,242.47
2022-09-18T23:09:15.794Z,237.37
2022-09-18T23:11:44.785Z,230.10
2022-09-18T23:14:14.589Z,245.13
2022-09-18T23:16:42.724Z,250.83
2022-09-18T23:19:16.435Z,425.77
2022-09-18T23:21:44.533Z,300.27
2022-09-18T23:24:12.987Z,253.33
2022-09-18T23:26:42.757Z,314.57
2022-09-18T23:29:12.939Z,325.10
2022-09-18T23:31:42.650Z,356.97
2022-09-18T23:34:13.071Z,383.23
2022-09-18T23:36:44.107Z,541.73
2022-09-18T23:39:14.503Z,359.90
2022-09-18T23:41:43.335Z,341.20
2022-09-18T23:44:13.413Z,597.00
2022-09-18T23:46:42.017Z,383.23
2022-09-18T23:49:12.230Z,478.57
2022-09-18T23:51:46.088Z,410.07
2022-09-18T23:54:17.316Z,633.50
2022-09-18T23:56:45.965Z,417.13
2022-09-18T23:59:15.989Z,499.93
